(°C)
18°
17°
17°
16°
16°
16°
16°
(°C)
15°
15°
15°
15°
15°
15°
15°
ΒΒΔ
ΒΒΔ
Β
Β
ΒΒΑ
ΒΑ
ΑΒΑ
(χλμ / ω)
5-9
4-8
4-7
3-6
3-5
2-5
2-4
(χιλιοστά)
0
0
0
0
0
0
0
(%)
30
30
30
24
19
13
16

Ανύψωση ήλιου

/ -5.8°
sun-icon
UV 6
05:16
21:10
Αύξων μηνίσκος (φάση σελήνης) (71°)
11:54
00:24

METAR για Renton (KRNT)

Χρόνος Συνθήκες Θερμοκρασία/
Σημείο δρόσου
Άνεμος Ορατότητα Καιρός Νέφη Πίεση Αλλαγή Ανεπεξέργαστο
VFR 18.3°C / 13.3°C 320º 4kt >10km 0.13mm precipitation Scattered Clouds 8000ft
Broken Clouds 10000ft
1013 - KRNT 060353Z 32004KT 10SM SCT080 BKN100 18/13 A2991 RMK AO2 RAE28 SLP132 P0000 T01830133 $
VFR 19.4°C / 13.3°C 340º 7kt >10km Light Rain 0.13mm precipitation Overcast 9500ft 1012 - KRNT 060253Z 34007KT 8SM -RA OVC095 19/13 A2989 RMK AO2 RAB07E30B51 SLP127 P0000 60000 T01940133 55000 $
VFR 21.1°C / 12.2°C 310º 5kt >10km 0.13mm precipitation Overcast 9500ft 1012 - KRNT 060153Z 31005KT 10SM OVC095 21/12 A2989 RMK AO2 RAE02 SLP127 P0000 T02110122 $
VFR 23.3°C / 9.4°C 340º 5kt >10km Light Rain 0.13mm precipitation Few Clouds 3700ft
Few Clouds 8000ft
Broken Clouds 10000ft
1012 - KRNT 060053Z 34005KT 10SM -RA FEW037 FEW080 BKN100 23/09 A2988 RMK AO2 RAB52 SLP123 P0000 T02330094 $
VFR 22.8°C / 10°C 320º 6kt >10km - Broken Clouds 11000ft 1012 - KRNT 052353Z 32006KT 10SM BKN110 23/10 A2989 RMK AO2 SLP127 T02280100 10244 20189 56002 $
VFR 23.3°C / 11.1°C 310º 5kt >10km - Few Clouds 6000ft
Overcast 10000ft
1012 - KRNT 052253Z 31005KT 10SM FEW060 OVC100 23/11 A2989 RMK AO2 SLP127 T02330111 $
VFR 23.9°C / 11.1°C 330º 7kt >10km - Overcast 9500ft 1012 - KRNT 052153Z 33007KT 10SM OVC095 24/11 A2989 RMK AO2 SLP125 T02390111 $
VFR 23.9°C / 11.1°C 340º 9kt >10km - Few Clouds 10000ft 1012 - KRNT 052053Z 34009KT 10SM FEW100 24/11 A2990 RMK AO2 SLP129 T02390111 58014 $
VFR 22.8°C / 11.1°C 330º 9kt >10km - Clear 1013 - KRNT 051953Z 33009KT 10SM CLR 23/11 A2991 RMK AO2 SLP134 T02280111 $
VFR 21.1°C / 11.7°C 340º 9kt >10km - Clear 1013 - KRNT 051853Z 34009KT 10SM CLR 21/12 A2992 RMK AO2 SLP137 T02110117 $
VFR 18.9°C / 12.8°C 350º 5kt >10km - Clear 1014 - KRNT 051753Z 35005KT 7SM CLR 19/13 A2994 RMK AO2 SLP142 T01890128 10189 20122 58011 $
MVFR 17.2°C / 12.8°C 360º 5kt 8000m - Clear 1014 - KRNT 051653Z 36005KT 5SM CLR 17/13 A2995 RMK AO2 SLP148 T01720128 $
MVFR 15°C / 11.7°C variable 0kt 6400m - Clear 1015 - KRNT 051553Z 00000KT 4SM CLR 15/12 A2997 RMK AO2 SLP153 T01500117 $
MVFR 14.4°C / 11.7°C 340º 3kt 4800m - Scattered Clouds 700ft - KRNT 051516Z 34003KT 3SM SCT007 14/12 A2997 RMK AO2 T01440117 $
IFR 14.4°C / 11.7°C variable 0kt 4800m - Overcast 700ft 1015 - KRNT 051453Z 00000KT 3SM OVC007 14/12 A2997 RMK AO2 SLP154 T01440117 50002 $
IFR 13.9°C / 11.7°C 330º 5kt 4800m - Overcast 600ft - KRNT 051425Z 33005KT 3SM OVC006 14/12 A2997 RMK AO2 T01390117 $
IFR 13.9°C / 11.1°C 360º 5kt 4000m - Overcast 700ft - KRNT 051411Z AUTO 36005KT 2 1/2SM OVC007 14/11 A2997 RMK AO2 T01390111 $
IFR 13.3°C / 10.6°C variable 0kt 6400m - Overcast 700ft 1015 - KRNT 051353Z AUTO 00000KT 4SM OVC007 13/11 A2997 RMK AO2 SLP154 T01330106 $
IFR 12.2°C / 10.6°C variable 0kt 6400m - Broken Clouds 700ft - KRNT 051312Z AUTO 00000KT 4SM BKN007 12/11 A2998 RMK AO2 T01220106 $
MVFR 12.2°C / 10°C variable 0kt 4800m - Scattered Clouds 700ft - KRNT 051301Z AUTO 00000KT 3SM SCT007 12/10 A2998 RMK AO2 T01220100 $
MVFR 12.2°C / 10.6°C variable 0kt 4800m - Clear 1015 - KRNT 051253Z AUTO 00000KT 3SM CLR 12/11 A2998 RMK AO2 SLP155 T01220106 $
IFR 13.3°C / 11.1°C variable 0kt 4000m - Scattered Clouds 800ft - KRNT 051216Z AUTO 00000KT 2 1/2SM SCT008 13/11 A2997 RMK AO2 T01330111 $
MVFR 13.3°C / 11.1°C 350º 6kt 6400m - Few Clouds 800ft 1015 - KRNT 051153Z AUTO 35006KT 4SM FEW008 13/11 A2996 RMK AO2 SLP152 T01330111 10167 20133 57001 $
MVFR 13.9°C / 11.1°C variable 5kt 6400m - Clear 1015 - KRNT 051053Z AUTO VRB05KT 4SM CLR 14/11 A2997 RMK AO2 SLP152 T01390111 $

VFR

18.3°C / 13.3°C

[Περισσότερο]
Άνεμος 320º 4kt
Ορατότητα >10km
Καιρός 0.13mm precipitation
Νέφη Scattered Clouds 8000ft
Broken Clouds 10000ft
Πίεση 1013
Αλλαγή -
Ανεπεξέργαστο KRNT 060353Z 32004KT 10SM SCT080 BKN100 18/13 A2991 RMK AO2 RAE28 SLP132 P0000 T01830133 $

VFR

19.4°C / 13.3°C

[Περισσότερο]
Άνεμος 340º 7kt
Ορατότητα >10km
Καιρός Light Rain 0.13mm precipitation
Νέφη Overcast 9500ft
Πίεση 1012
Αλλαγή -
Ανεπεξέργαστο KRNT 060253Z 34007KT 8SM -RA OVC095 19/13 A2989 RMK AO2 RAB07E30B51 SLP127 P0000 60000 T01940133 55000 $

VFR

21.1°C / 12.2°C

[Περισσότερο]
Άνεμος 310º 5kt
Ορατότητα >10km
Καιρός 0.13mm precipitation
Νέφη Overcast 9500ft
Πίεση 1012
Αλλαγή -
Ανεπεξέργαστο KRNT 060153Z 31005KT 10SM OVC095 21/12 A2989 RMK AO2 RAE02 SLP127 P0000 T02110122 $

VFR

23.3°C / 9.4°C

[Περισσότερο]
Άνεμος 340º 5kt
Ορατότητα >10km
Καιρός Light Rain 0.13mm precipitation
Νέφη Few Clouds 3700ft
Few Clouds 8000ft
Broken Clouds 10000ft
Πίεση 1012
Αλλαγή -
Ανεπεξέργαστο KRNT 060053Z 34005KT 10SM -RA FEW037 FEW080 BKN100 23/09 A2988 RMK AO2 RAB52 SLP123 P0000 T02330094 $

VFR

22.8°C / 10°C

[Περισσότερο]
Άνεμος 320º 6kt
Ορατότητα >10km
Καιρός -
Νέφη Broken Clouds 11000ft
Πίεση 1012
Αλλαγή -
Ανεπεξέργαστο KRNT 052353Z 32006KT 10SM BKN110 23/10 A2989 RMK AO2 SLP127 T02280100 10244 20189 56002 $

VFR

23.3°C / 11.1°C

[Περισσότερο]
Άνεμος 310º 5kt
Ορατότητα >10km
Καιρός -
Νέφη Few Clouds 6000ft
Overcast 10000ft
Πίεση 1012
Αλλαγή -
Ανεπεξέργαστο KRNT 052253Z 31005KT 10SM FEW060 OVC100 23/11 A2989 RMK AO2 SLP127 T02330111 $

VFR

23.9°C / 11.1°C

[Περισσότερο]
Άνεμος 330º 7kt
Ορατότητα >10km
Καιρός -
Νέφη Overcast 9500ft
Πίεση 1012
Αλλαγή -
Ανεπεξέργαστο KRNT 052153Z 33007KT 10SM OVC095 24/11 A2989 RMK AO2 SLP125 T02390111 $

VFR

23.9°C / 11.1°C

[Περισσότερο]
Άνεμος 340º 9kt
Ορατότητα >10km
Καιρός -
Νέφη Few Clouds 10000ft
Πίεση 1012
Αλλαγή -
Ανεπεξέργαστο KRNT 052053Z 34009KT 10SM FEW100 24/11 A2990 RMK AO2 SLP129 T02390111 58014 $

VFR

22.8°C / 11.1°C

[Περισσότερο]
Άνεμος 330º 9kt
Ορατότητα >10km
Καιρός -
Νέφη Clear
Πίεση 1013
Αλλαγή -
Ανεπεξέργαστο KRNT 051953Z 33009KT 10SM CLR 23/11 A2991 RMK AO2 SLP134 T02280111 $

VFR

21.1°C / 11.7°C

[Περισσότερο]
Άνεμος 340º 9kt
Ορατότητα >10km
Καιρός -
Νέφη Clear
Πίεση 1013
Αλλαγή -
Ανεπεξέργαστο KRNT 051853Z 34009KT 10SM CLR 21/12 A2992 RMK AO2 SLP137 T02110117 $

VFR

18.9°C / 12.8°C

[Περισσότερο]
Άνεμος 350º 5kt
Ορατότητα >10km
Καιρός -
Νέφη Clear
Πίεση 1014
Αλλαγή -
Ανεπεξέργαστο KRNT 051753Z 35005KT 7SM CLR 19/13 A2994 RMK AO2 SLP142 T01890128 10189 20122 58011 $

MVFR

17.2°C / 12.8°C

[Περισσότερο]
Άνεμος 360º 5kt
Ορατότητα 8000m
Καιρός -
Νέφη Clear
Πίεση 1014
Αλλαγή -
Ανεπεξέργαστο KRNT 051653Z 36005KT 5SM CLR 17/13 A2995 RMK AO2 SLP148 T01720128 $

MVFR

15°C / 11.7°C

[Περισσότερο]
Άνεμος variable 0kt
Ορατότητα 6400m
Καιρός -
Νέφη Clear
Πίεση 1015
Αλλαγή -
Ανεπεξέργαστο KRNT 051553Z 00000KT 4SM CLR 15/12 A2997 RMK AO2 SLP153 T01500117 $

MVFR

14.4°C / 11.7°C

[Περισσότερο]
Άνεμος 340º 3kt
Ορατότητα 4800m
Καιρός -
Νέφη Scattered Clouds 700ft
Πίεση
Αλλαγή -
Ανεπεξέργαστο KRNT 051516Z 34003KT 3SM SCT007 14/12 A2997 RMK AO2 T01440117 $

IFR

14.4°C / 11.7°C

[Περισσότερο]
Άνεμος variable 0kt
Ορατότητα 4800m
Καιρός -
Νέφη Overcast 700ft
Πίεση 1015
Αλλαγή -
Ανεπεξέργαστο KRNT 051453Z 00000KT 3SM OVC007 14/12 A2997 RMK AO2 SLP154 T01440117 50002 $

IFR

13.9°C / 11.7°C

[Περισσότερο]
Άνεμος 330º 5kt
Ορατότητα 4800m
Καιρός -
Νέφη Overcast 600ft
Πίεση
Αλλαγή -
Ανεπεξέργαστο KRNT 051425Z 33005KT 3SM OVC006 14/12 A2997 RMK AO2 T01390117 $

IFR

13.9°C / 11.1°C

[Περισσότερο]
Άνεμος 360º 5kt
Ορατότητα 4000m
Καιρός -
Νέφη Overcast 700ft
Πίεση
Αλλαγή -
Ανεπεξέργαστο KRNT 051411Z AUTO 36005KT 2 1/2SM OVC007 14/11 A2997 RMK AO2 T01390111 $

IFR

13.3°C / 10.6°C

[Περισσότερο]
Άνεμος variable 0kt
Ορατότητα 6400m
Καιρός -
Νέφη Overcast 700ft
Πίεση 1015
Αλλαγή -
Ανεπεξέργαστο KRNT 051353Z AUTO 00000KT 4SM OVC007 13/11 A2997 RMK AO2 SLP154 T01330106 $

IFR

12.2°C / 10.6°C

[Περισσότερο]
Άνεμος variable 0kt
Ορατότητα 6400m
Καιρός -
Νέφη Broken Clouds 700ft
Πίεση
Αλλαγή -
Ανεπεξέργαστο KRNT 051312Z AUTO 00000KT 4SM BKN007 12/11 A2998 RMK AO2 T01220106 $

MVFR

12.2°C / 10°C

[Περισσότερο]
Άνεμος variable 0kt
Ορατότητα 4800m
Καιρός -
Νέφη Scattered Clouds 700ft
Πίεση
Αλλαγή -
Ανεπεξέργαστο KRNT 051301Z AUTO 00000KT 3SM SCT007 12/10 A2998 RMK AO2 T01220100 $

MVFR

12.2°C / 10.6°C

[Περισσότερο]
Άνεμος variable 0kt
Ορατότητα 4800m
Καιρός -
Νέφη Clear
Πίεση 1015
Αλλαγή -
Ανεπεξέργαστο KRNT 051253Z AUTO 00000KT 3SM CLR 12/11 A2998 RMK AO2 SLP155 T01220106 $

IFR

13.3°C / 11.1°C

[Περισσότερο]
Άνεμος variable 0kt
Ορατότητα 4000m
Καιρός -
Νέφη Scattered Clouds 800ft
Πίεση
Αλλαγή -
Ανεπεξέργαστο KRNT 051216Z AUTO 00000KT 2 1/2SM SCT008 13/11 A2997 RMK AO2 T01330111 $

MVFR

13.3°C / 11.1°C

[Περισσότερο]
Άνεμος 350º 6kt
Ορατότητα 6400m
Καιρός -
Νέφη Few Clouds 800ft
Πίεση 1015
Αλλαγή -
Ανεπεξέργαστο KRNT 051153Z AUTO 35006KT 4SM FEW008 13/11 A2996 RMK AO2 SLP152 T01330111 10167 20133 57001 $

MVFR

13.9°C / 11.1°C

[Περισσότερο]
Άνεμος variable 5kt
Ορατότητα 6400m
Καιρός -
Νέφη Clear
Πίεση 1015
Αλλαγή -
Ανεπεξέργαστο KRNT 051053Z AUTO VRB05KT 4SM CLR 14/11 A2997 RMK AO2 SLP152 T01390111 $

Ραντάρ και πρόγνωση υετού μικρής διάρκειας για Renton

Ψιλοβρέχει
Φως
Μέτρια
Βαριά
Πολύ βαρύ
Χαλάζι

Ο δείκτης θέσης τοποθετείται στο Renton. Αυτή η κινούμενη εικόνα δείχνει την ραντάρ βροχόπτωσης για την τελευταία ώρα, καθώς και 1πρόγνωση h. Το ψιλόβροχο ή το ελαφρύ χιόνι μπορεί να είναι αόρατο για το ραντάρ. Η ένταση της βροχόπτωσης είναι χρωματικά κωδικοποιημένη και κυμαίνεται από γαλάζιο έως πορτοκαλί.

Τρέχουσες εικόνες δορυφόρου για Renton, ΗΠΑ

Η ένδειξη τοποθεσίας τοποθετείται στο Renton. [Περισσότερο]

Οι δορυφορικές εικόνες σε πραγματικό χρόνο συνδυάζουν ορατό φως κατά τη διάρκεια της ημέρας με υπέρυθρη ακτινοβολία κατά τη διάρκεια της νύχτας. Κατά τη διάρκεια της νύχτας, η εικόνα δεν είναι σκοτεινή μιας και η υπέρυθρη ακτινοβολία μπορεί να εντοπίσει τις διαφορές στη θερμοκρασία. Δυστυχώς, είναι δύσκολο να ξεχωρίσουν οι χαμηλές νεφώσεις και η ομίχλη από τις θερμοκρασίες εδάφους και έτσι μπορεί να είναι σχετικά αόρατα κατά τη διάρκεια της νύχτας. Οι εικόνες από τον δορυφόρο Meteosat για την Ευρώπη ενημερώνονται σε πραγματικό χρόνο κάθε 5 λεπτά. Οι εικόνες από τους δορυφόρους GOES-16/GOES-17 (Βόρεια & Λατινική Αμερική) και Himawari (Ασία) ενημερώνονται κάθε 10 λεπτά.

Επιστροφή στην κορυφή